Blue Mountain Lake, New York
Current Conditions -  °F | °C
As of 4:43 PM on Friday 28 Nov 2014 (Local Time) from KSLK Reporting Station
Light Snow Light Snow  
Wind Chill: 18°   Ceiling: 1500
Heat Index: 18°   Visibility: 1.7mi
Dew Point: 14°   Wind: 3mph
Humidity: 84%   Direction: 270°W
Pressure: 30.04"   Gusts: NA
Location:  43.86°N, 74.44°W
Report Text: KSLK 282143Z AUTO 27003KT 1 3/4SM -SN BR OVC015 M08/M10 A3004 RMK AO2 P0000 T10781100
Loading
Personal Weather Stations






























Interactive Weather Map New forecast layout! Learn more

10-Day Weather Forecast

Advertisements
Track Severe Weather on mobile